createdAt,value
2023-03-11T00:00:49.035Z,8.10
2023-03-11T00:03:29.113Z,8.00
2023-03-11T00:06:01.597Z,7.96
2023-03-11T00:08:30.268Z,7.96
2023-03-11T00:11:00.681Z,7.90
2023-03-11T00:13:30.028Z,7.92
2023-03-11T00:15:59.819Z,7.86
2023-03-11T00:18:31.419Z,7.88
2023-03-11T00:21:01.178Z,7.83
2023-03-11T00:23:30.295Z,7.80
2023-03-11T00:26:00.043Z,7.81
2023-03-11T00:28:28.345Z,7.78
2023-03-11T00:30:56.610Z,7.80
2023-03-11T00:33:24.965Z,7.85
2023-03-11T00:35:53.337Z,7.87
2023-03-11T00:38:22.097Z,7.91
2023-03-11T00:40:50.581Z,7.97
2023-03-11T00:43:19.032Z,8.02
2023-03-11T00:45:47.431Z,8.09
2023-03-11T00:48:16.765Z,8.13
2023-03-11T00:50:45.492Z,8.12
2023-03-11T00:53:13.864Z,8.13
2023-03-11T00:55:42.076Z,8.12
2023-03-11T00:58:13.239Z,8.10
2023-03-11T01:00:48.997Z,8.18
2023-03-11T01:03:17.275Z,8.25
2023-03-11T01:05:46.653Z,8.32
2023-03-11T01:08:14.863Z,8.37
2023-03-11T01:10:43.167Z,8.43
2023-03-11T01:13:11.403Z,8.48
2023-03-11T01:15:39.630Z,8.49
2023-03-11T01:18:07.858Z,8.51
2023-03-11T01:20:38.784Z,8.50
2023-03-11T01:23:08.398Z,8.47
2023-03-11T01:25:36.871Z,8.51
2023-03-11T01:28:08.380Z,8.52
2023-03-11T01:30:38.770Z,8.52
2023-03-11T01:33:08.699Z,8.51
2023-03-11T01:35:36.892Z,8.48
2023-03-11T01:38:05.087Z,8.49
2023-03-11T01:40:36.459Z,8.48
2023-03-11T01:43:39.823Z,8.45
2023-03-11T01:46:16.181Z,8.42
2023-03-11T01:48:57.145Z,8.40
2023-03-11T01:51:31.382Z,8.39
2023-03-11T01:54:04.133Z,8.42
2023-03-11T01:56:33.830Z,8.35
2023-03-11T01:59:03.101Z,8.32
2023-03-11T02:01:31.430Z,8.28
2023-03-11T02:04:00.092Z,8.29
2023-03-11T02:06:29.203Z,8.30
2023-03-11T02:08:57.985Z,8.32
2023-03-11T02:11:30.736Z,8.34
2023-03-11T02:14:03.631Z,8.34
2023-03-11T02:16:32.157Z,8.33
2023-03-11T02:19:13.721Z,8.38
2023-03-11T02:21:41.909Z,8.37
2023-03-11T02:24:23.717Z,8.37
2023-03-11T02:26:51.912Z,8.37
2023-03-11T02:29:22.384Z,8.37
2023-03-11T02:31:51.029Z,8.39
2023-03-11T02:34:25.092Z,8.39
2023-03-11T02:36:53.518Z,8.36
2023-03-11T02:39:38.186Z,8.37
2023-03-11T02:42:28.945Z,8.32
2023-03-11T02:45:07.323Z,8.28
2023-03-11T02:47:38.022Z,8.22
2023-03-11T02:50:11.214Z,8.22
2023-03-11T02:52:39.934Z,8.30
2023-03-11T02:55:10.115Z,8.36
2023-03-11T02:57:38.932Z,8.34
2023-03-11T03:00:16.817Z,8.32
2023-03-11T03:02:52.479Z,8.33
2023-03-11T03:05:22.825Z,8.36
2023-03-11T03:07:52.017Z,8.41
2023-03-11T03:10:22.359Z,8.42
2023-03-11T03:12:50.934Z,8.44
2023-03-11T03:15:19.374Z,8.44
2023-03-11T03:17:48.005Z,8.45
2023-03-11T03:20:16.274Z,8.43
2023-03-11T03:22:49.518Z,8.50
2023-03-11T03:25:18.714Z,8.56
2023-03-11T03:27:47.410Z,8.60
2023-03-11T03:30:16.270Z,8.63
2023-03-11T03:32:44.956Z,8.68
2023-03-11T03:35:15.598Z,8.71
2023-03-11T03:38:03.685Z,8.64
2023-03-11T03:40:32.753Z,8.62
2023-03-11T03:43:03.677Z,8.62
2023-03-11T03:45:32.151Z,8.62
2023-03-11T03:48:00.617Z,8.62
2023-03-11T03:50:29.470Z,8.57
2023-03-11T03:52:58.093Z,8.60
2023-03-11T03:55:26.675Z,8.58
2023-03-11T03:57:55.460Z,8.55
2023-03-11T04:00:25.819Z,8.49
2023-03-11T04:02:57.268Z,8.48
2023-03-11T04:05:42.879Z,8.44
2023-03-11T04:08:12.381Z,8.39
2023-03-11T04:10:40.763Z,8.39
2023-03-11T04:13:09.499Z,8.43
2023-03-11T04:15:39.609Z,8.47
2023-03-11T04:18:08.632Z,8.50
2023-03-11T04:20:39.223Z,8.50
2023-03-11T04:23:07.805Z,8.47
2023-03-11T04:25:36.290Z,8.45
2023-03-11T04:28:04.892Z,8.44
2023-03-11T04:30:33.838Z,8.41
2023-03-11T04:33:02.391Z,8.39
2023-03-11T04:35:31.509Z,8.35
2023-03-11T04:38:00.602Z,8.27
2023-03-11T04:40:29.098Z,8.24
2023-03-11T04:42:57.364Z,8.17
2023-03-11T04:45:26.216Z,8.17
2023-03-11T04:47:56.204Z,8.11
2023-03-11T04:50:24.811Z,8.08
2023-03-11T04:52:53.237Z,8.04
2023-03-11T04:55:21.862Z,8.04
2023-03-11T04:57:50.478Z,8.01
2023-03-11T05:00:23.152Z,7.98
2023-03-11T05:02:52.716Z,7.97
2023-03-11T05:05:20.978Z,7.96
2023-03-11T05:07:49.689Z,7.95
2023-03-11T05:10:22.650Z,7.91
2023-03-11T05:12:52.937Z,7.90
2023-03-11T05:15:21.595Z,7.86
2023-03-11T05:17:49.850Z,7.79
2023-03-11T05:20:18.605Z,7.80
2023-03-11T05:22:46.697Z,7.80
2023-03-11T05:25:15.188Z,7.76
2023-03-11T05:27:44.767Z,7.75
2023-03-11T05:30:15.302Z,7.73
2023-03-11T05:32:44.085Z,7.73
2023-03-11T05:35:13.586Z,7.68
2023-03-11T05:37:41.856Z,7.70
2023-03-11T05:40:12.331Z,7.70
2023-03-11T05:42:41.897Z,7.66
2023-03-11T05:45:11.079Z,7.66
2023-03-11T05:47:42.356Z,7.68
2023-03-11T05:50:12.824Z,7.66
2023-03-11T05:52:41.352Z,7.69
2023-03-11T05:55:12.284Z,7.69
2023-03-11T05:57:41.182Z,7.77
2023-03-11T06:00:13.211Z,7.85
2023-03-11T06:02:47.517Z,7.84
2023-03-11T06:05:17.935Z,7.92
2023-03-11T06:07:47.620Z,7.92
2023-03-11T06:10:16.041Z,7.95
2023-03-11T06:12:44.295Z,7.96
2023-03-11T06:15:20.842Z,7.92
2023-03-11T06:17:49.109Z,7.96
2023-03-11T06:20:18.141Z,7.98
2023-03-11T06:22:49.769Z,7.96
2023-03-11T06:25:18.451Z,8.04
2023-03-11T06:27:52.573Z,8.13
2023-03-11T06:30:21.357Z,8.19
2023-03-11T06:32:56.321Z,8.17
2023-03-11T06:35:24.773Z,8.20
2023-03-11T06:37:53.055Z,8.16
2023-03-11T06:40:21.296Z,8.16
2023-03-11T06:42:49.480Z,8.14
2023-03-11T06:45:20.531Z,8.06
2023-03-11T06:47:50.153Z,8.05
2023-03-11T06:50:18.640Z,8.03
2023-03-11T06:52:46.759Z,8.04
2023-03-11T06:55:15.186Z,8.17
2023-03-11T06:57:45.774Z,8.39
2023-03-11T07:00:14.992Z,9.00
2023-03-11T07:02:46.734Z,10.18
2023-03-11T07:05:16.134Z,11.36
2023-03-11T07:07:44.487Z,11.94
2023-03-11T07:10:12.747Z,12.62
2023-03-11T07:12:41.474Z,12.97
2023-03-11T07:15:10.301Z,12.95
2023-03-11T07:17:38.537Z,13.13
2023-03-11T07:20:07.622Z,13.57
2023-03-11T07:22:36.020Z,13.60
2023-03-11T07:25:04.440Z,13.92
2023-03-11T07:27:32.639Z,14.40
2023-03-11T07:30:02.541Z,14.62
2023-03-11T07:32:30.749Z,14.86
2023-03-11T07:34:59.001Z,14.86
2023-03-11T07:37:27.176Z,14.74
2023-03-11T07:39:55.687Z,14.60
2023-03-11T07:42:23.808Z,14.51
2023-03-11T07:44:54.161Z,14.37
2023-03-11T07:47:22.334Z,14.24
2023-03-11T07:49:50.508Z,14.24
2023-03-11T07:52:19.021Z,14.32
2023-03-11T07:54:47.423Z,14.26
2023-03-11T07:57:17.320Z,14.18
2023-03-11T07:59:45.410Z,13.93
2023-03-11T08:02:13.636Z,13.72
2023-03-11T08:04:41.828Z,13.63
2023-03-11T08:07:10.047Z,13.63
2023-03-11T08:09:38.191Z,13.64
2023-03-11T08:12:06.679Z,13.71
2023-03-11T08:14:34.741Z,13.78
2023-03-11T08:17:03.971Z,14.02
2023-03-11T08:19:32.205Z,14.36
2023-03-11T08:22:04.342Z,14.75
2023-03-11T08:24:32.596Z,14.96
2023-03-11T08:27:01.060Z,14.99
2023-03-11T08:29:29.264Z,15.04
2023-03-11T08:31:57.709Z,15.27
2023-03-11T08:34:27.737Z,15.57
2023-03-11T08:36:56.230Z,15.96
2023-03-11T08:39:24.453Z,16.35
2023-03-11T08:41:52.509Z,16.79
2023-03-11T08:44:20.834Z,17.37
2023-03-11T08:46:49.092Z,18.09
2023-03-11T08:49:17.281Z,18.89
2023-03-11T08:51:45.409Z,19.63
2023-03-11T08:54:13.640Z,20.37
2023-03-11T08:56:41.845Z,21.15
2023-03-11T08:59:10.232Z,21.59
2023-03-11T09:01:38.545Z,21.15
2023-03-11T09:04:06.783Z,20.23
2023-03-11T09:06:34.945Z,19.42
2023-03-11T09:09:03.995Z,19.05
2023-03-11T09:11:32.705Z,19.45
2023-03-11T09:14:00.839Z,19.32
2023-03-11T09:16:29.272Z,18.77
2023-03-11T09:19:00.394Z,18.41
2023-03-11T09:21:28.716Z,18.89
2023-03-11T09:23:56.846Z,19.24
2023-03-11T09:26:25.117Z,19.78
2023-03-11T09:28:53.386Z,20.59
2023-03-11T09:31:21.647Z,21.52
2023-03-11T09:33:52.563Z,21.95
2023-03-11T09:36:21.821Z,21.70
2023-03-11T09:38:50.088Z,21.17
2023-03-11T09:41:51.528Z,20.97
2023-03-11T09:44:47.975Z,21.24
2023-03-11T09:47:31.013Z,21.83
2023-03-11T09:50:31.213Z,22.28
2023-03-11T09:53:05.468Z,21.40
2023-03-11T09:55:46.720Z,20.18
2023-03-11T09:58:45.880Z,19.15
2023-03-11T10:01:16.813Z,18.30
2023-03-11T10:03:45.986Z,17.70
2023-03-11T10:06:19.932Z,17.32
2023-03-11T10:08:54.209Z,17.10
2023-03-11T10:11:54.565Z,17.53
2023-03-11T10:15:05.939Z,17.83
2023-03-11T10:17:39.868Z,18.43
2023-03-11T10:20:24.984Z,19.13
2023-03-11T10:22:53.841Z,19.91
2023-03-11T10:25:28.221Z,20.64
2023-03-11T10:28:05.531Z,20.70
2023-03-11T10:30:41.635Z,19.97
2023-03-11T10:33:12.773Z,19.03
2023-03-11T10:35:44.854Z,18.20
2023-03-11T10:38:27.940Z,17.63
2023-03-11T10:41:00.116Z,16.81
2023-03-11T10:43:39.604Z,16.07
2023-03-11T10:46:18.950Z,15.51
2023-03-11T10:48:47.231Z,15.05
2023-03-11T10:51:31.746Z,14.61
2023-03-11T10:54:02.528Z,14.20
2023-03-11T10:56:38.368Z,13.89
2023-03-11T10:59:30.784Z,13.64
2023-03-11T11:02:22.349Z,13.42
2023-03-11T11:05:03.500Z,13.22
2023-03-11T11:07:35.471Z,13.02
2023-03-11T11:10:12.625Z,12.81
2023-03-11T11:13:13.205Z,12.62
2023-03-11T11:15:51.700Z,12.29
2023-03-11T11:18:24.453Z,11.95
2023-03-11T11:21:07.901Z,11.57
2023-03-11T11:23:38.365Z,11.26
2023-03-11T11:26:17.646Z,11.11
2023-03-11T11:28:46.494Z,10.95
2023-03-11T11:31:26.670Z,10.85
2023-03-11T11:33:56.349Z,10.71
2023-03-11T11:36:29.788Z,10.80
2023-03-11T11:39:00.653Z,10.78
2023-03-11T11:41:30.800Z,10.79
2023-03-11T11:44:06.923Z,10.85
2023-03-11T11:46:40.718Z,10.95
2023-03-11T11:49:28.910Z,10.86
2023-03-11T11:52:09.162Z,10.71
2023-03-11T11:54:43.400Z,10.74
2023-03-11T11:57:16.916Z,10.89
2023-03-11T11:59:46.075Z,10.83
2023-03-11T12:02:32.823Z,10.84
2023-03-11T12:05:28.175Z,10.87
2023-03-11T12:08:22.241Z,10.88
2023-03-11T12:11:01.577Z,10.84
2023-03-11T12:13:41.734Z,10.76
2023-03-11T12:16:30.424Z,10.69
2023-03-11T12:19:11.371Z,10.72
2023-03-11T12:21:54.935Z,10.55
2023-03-11T12:24:43.397Z,10.28
2023-03-11T12:27:30.243Z,10.06
2023-03-11T12:30:05.193Z,10.08
2023-03-11T12:32:44.247Z,10.10
2023-03-11T12:35:24.617Z,9.94
2023-03-11T12:38:05.826Z,9.89
2023-03-11T12:41:09.484Z,9.63
2023-03-11T12:43:37.618Z,9.35
2023-03-11T12:46:10.635Z,9.29
2023-03-11T12:49:10.510Z,9.28
2023-03-11T12:51:40.159Z,9.19
2023-03-11T12:54:31.816Z,9.03
2023-03-11T12:57:08.316Z,9.01
2023-03-11T13:00:08.277Z,8.98
2023-03-11T13:02:50.337Z,8.90
2023-03-11T13:05:28.241Z,8.82
2023-03-11T13:08:19.847Z,8.58
2023-03-11T13:10:52.750Z,8.39
2023-03-11T13:13:30.386Z,8.20
2023-03-11T13:16:19.043Z,7.98
2023-03-11T13:18:49.156Z,7.80
2023-03-11T13:21:32.383Z,7.61
2023-03-11T13:24:18.780Z,7.57
2023-03-11T13:27:10.025Z,7.49
2023-03-11T13:30:04.526Z,7.46
2023-03-11T13:32:45.535Z,7.29
2023-03-11T13:35:58.884Z,7.38
2023-03-11T13:38:53.507Z,7.56
2023-03-11T13:41:29.581Z,7.50
2023-03-11T13:44:06.429Z,7.31
2023-03-11T13:46:40.358Z,7.28
2023-03-11T13:49:27.256Z,7.19
2023-03-11T13:51:57.506Z,6.93
2023-03-11T13:54:35.237Z,6.79
2023-03-11T13:57:04.066Z,6.77
2023-03-11T13:59:35.147Z,6.74
2023-03-11T14:02:18.404Z,6.71
2023-03-11T14:05:07.510Z,6.65
2023-03-11T14:07:37.800Z,6.52
2023-03-11T14:10:11.793Z,6.41
2023-03-11T14:12:40.103Z,6.36
2023-03-11T14:15:12.751Z,6.44
2023-03-11T14:17:40.985Z,6.44
2023-03-11T14:20:17.115Z,6.38
2023-03-11T14:22:47.627Z,6.41
2023-03-11T14:25:36.550Z,6.36
2023-03-11T14:28:07.024Z,6.35
2023-03-11T14:30:35.201Z,6.31
2023-03-11T14:33:06.547Z,6.21
2023-03-11T14:35:34.803Z,6.06
2023-03-11T14:38:02.945Z,5.99
2023-03-11T14:40:34.178Z,5.79
2023-03-11T14:43:06.618Z,5.66
2023-03-11T14:45:38.053Z,5.57
2023-03-11T14:48:24.963Z,5.53
2023-03-11T14:50:56.282Z,5.49
2023-03-11T14:53:34.982Z,5.42
2023-03-11T14:56:08.911Z,5.34
2023-03-11T14:58:47.626Z,5.23
2023-03-11T15:01:21.823Z,5.14
2023-03-11T15:03:59.589Z,5.06
2023-03-11T15:06:30.533Z,5.05
2023-03-11T15:09:03.855Z,4.99
2023-03-11T15:11:45.479Z,4.96
2023-03-11T15:14:19.605Z,4.92
2023-03-11T15:16:47.759Z,4.89
2023-03-11T15:19:28.017Z,4.89
2023-03-11T15:22:01.414Z,4.87
2023-03-11T15:24:32.603Z,4.77
2023-03-11T15:27:08.737Z,4.68
2023-03-11T15:29:37.484Z,4.69
2023-03-11T15:32:44.768Z,4.63
2023-03-11T15:35:16.815Z,4.57
2023-03-11T15:37:47.478Z,4.54
2023-03-11T15:40:18.329Z,4.51
2023-03-11T15:42:47.174Z,4.49
2023-03-11T15:45:16.517Z,4.53
2023-03-11T15:47:46.864Z,4.49
2023-03-11T15:50:24.744Z,4.40
2023-03-11T15:52:56.495Z,4.29
2023-03-11T15:55:27.096Z,4.26
2023-03-11T15:58:06.963Z,4.28
2023-03-11T16:00:36.253Z,4.32
2023-03-11T16:03:04.753Z,4.31
2023-03-11T16:05:32.959Z,4.30
2023-03-11T16:08:01.222Z,4.22
2023-03-11T16:10:29.400Z,4.13
2023-03-11T16:12:57.585Z,4.07
2023-03-11T16:15:29.395Z,4.04
2023-03-11T16:17:59.701Z,3.90
2023-03-11T16:20:41.846Z,3.76
2023-03-11T16:23:50.240Z,3.60
2023-03-11T16:26:19.421Z,3.46
2023-03-11T16:28:47.585Z,3.40
2023-03-11T16:31:15.754Z,3.40
2023-03-11T16:33:43.885Z,3.36
2023-03-11T16:36:12.154Z,3.29
2023-03-11T16:38:48.196Z,3.25
2023-03-11T16:41:17.493Z,3.22
2023-03-11T16:43:45.775Z,3.20
2023-03-11T16:46:14.151Z,3.17
2023-03-11T16:48:42.413Z,3.17
2023-03-11T16:51:10.585Z,3.15
2023-03-11T16:53:38.696Z,3.13
2023-03-11T16:56:07.356Z,3.12
2023-03-11T16:58:35.525Z,3.08
2023-03-11T17:01:03.821Z,3.06
2023-03-11T17:03:41.135Z,3.01
2023-03-11T17:06:11.103Z,2.95
2023-03-11T17:08:39.353Z,2.92
2023-03-11T17:11:15.392Z,2.91
2023-03-11T17:13:43.957Z,2.88
2023-03-11T17:16:12.261Z,2.87
2023-03-11T17:18:40.490Z,2.90
2023-03-11T17:21:10.524Z,2.95
2023-03-11T17:23:39.115Z,2.97
2023-03-11T17:26:16.875Z,2.99
2023-03-11T17:28:45.396Z,3.01
2023-03-11T17:31:17.375Z,3.01
2023-03-11T17:33:45.949Z,2.98
2023-03-11T17:36:16.748Z,2.93
2023-03-11T17:38:47.054Z,2.90
2023-03-11T17:41:17.703Z,2.92
2023-03-11T17:43:46.245Z,2.94
2023-03-11T17:46:17.006Z,2.98
2023-03-11T17:48:47.400Z,3.00
2023-03-11T17:51:18.609Z,3.01
2023-03-11T17:53:47.808Z,3.01
2023-03-11T17:56:19.112Z,3.03
2023-03-11T17:58:48.585Z,3.02
2023-03-11T18:01:20.938Z,3.05
2023-03-11T18:03:49.872Z,3.07
2023-03-11T18:06:19.978Z,3.07
2023-03-11T18:08:48.503Z,3.07
2023-03-11T18:11:20.479Z,3.07
2023-03-11T18:13:49.075Z,3.06
2023-03-11T18:16:25.913Z,3.06
2023-03-11T18:18:56.156Z,3.06
2023-03-11T18:21:27.492Z,3.05
2023-03-11T18:23:57.484Z,3.05
2023-03-11T18:26:28.006Z,3.04
2023-03-11T18:28:58.439Z,3.03
2023-03-11T18:31:29.021Z,2.99
2023-03-11T18:34:05.253Z,2.98
2023-03-11T18:36:36.615Z,2.97
2023-03-11T18:39:05.776Z,2.98
2023-03-11T18:41:35.812Z,2.98
2023-03-11T18:44:04.716Z,2.97
2023-03-11T18:46:33.899Z,2.96
2023-03-11T18:49:03.926Z,2.97
2023-03-11T18:51:32.782Z,2.97
2023-03-11T18:54:02.134Z,2.99
2023-03-11T18:56:33.412Z,3.00
2023-03-11T18:59:01.738Z,3.01
2023-03-11T19:01:30.680Z,2.99
2023-03-11T19:04:00.117Z,3.00
2023-03-11T19:06:29.413Z,2.97
2023-03-11T19:09:00.606Z,2.95
2023-03-11T19:11:28.738Z,2.96
2023-03-11T19:13:57.441Z,2.94
2023-03-11T19:16:26.852Z,2.92
2023-03-11T19:18:55.713Z,2.94
2023-03-11T19:21:24.193Z,2.94
2023-03-11T19:23:55.154Z,2.96
2023-03-11T19:26:41.543Z,2.95
2023-03-11T19:29:13.767Z,2.93
2023-03-11T19:31:43.912Z,2.90
2023-03-11T19:34:12.796Z,2.83
2023-03-11T19:36:43.473Z,2.81
2023-03-11T19:39:11.698Z,2.81
2023-03-11T19:41:39.957Z,2.81
2023-03-11T19:44:10.481Z,2.67
2023-03-11T19:46:39.487Z,2.56
2023-03-11T19:49:07.865Z,2.31
2023-03-11T19:51:49.255Z,2.19
2023-03-11T19:54:18.887Z,2.10
2023-03-11T19:56:48.334Z,2.07
2023-03-11T19:59:17.382Z,2.03
2023-03-11T20:01:46.232Z,2.01
2023-03-11T20:04:15.473Z,1.96
2023-03-11T20:06:44.257Z,1.84
2023-03-11T20:09:13.458Z,1.74
2023-03-11T20:11:42.431Z,1.70
2023-03-11T20:14:11.736Z,1.67
2023-03-11T20:16:40.167Z,1.66
2023-03-11T20:19:08.453Z,1.67
2023-03-11T20:21:40.734Z,1.73
2023-03-11T20:24:10.345Z,1.84
2023-03-11T20:26:38.553Z,1.94
2023-03-11T20:29:06.973Z,1.94
2023-03-11T20:31:36.636Z,1.92
2023-03-11T20:34:05.574Z,1.94
2023-03-11T20:36:34.653Z,1.99
2023-03-11T20:39:06.104Z,2.04
2023-03-11T20:41:38.695Z,2.08
2023-03-11T20:44:09.509Z,2.10
2023-03-11T20:46:37.781Z,2.09
2023-03-11T20:49:07.095Z,2.10
2023-03-11T20:51:35.429Z,2.12
2023-03-11T20:54:03.796Z,2.13
2023-03-11T20:56:32.283Z,2.16
2023-03-11T20:59:01.088Z,2.13
2023-03-11T21:01:31.143Z,2.01
2023-03-11T21:04:02.209Z,1.83
2023-03-11T21:06:32.092Z,1.58
2023-03-11T21:09:05.058Z,1.34
2023-03-11T21:11:33.644Z,1.16
2023-03-11T21:14:01.894Z,1.01
2023-03-11T21:16:31.078Z,0.95
2023-03-11T21:19:01.543Z,0.91
2023-03-11T21:21:30.040Z,0.90
2023-03-11T21:23:58.374Z,0.91
2023-03-11T21:26:26.818Z,0.93
2023-03-11T21:28:55.699Z,0.96
2023-03-11T21:31:28.560Z,1.03
2023-03-11T21:34:01.206Z,1.08
2023-03-11T21:36:30.334Z,1.07
2023-03-11T21:38:58.628Z,1.05
2023-03-11T21:41:28.116Z,1.04
2023-03-11T21:43:57.607Z,1.03
2023-03-11T21:46:30.298Z,1.05
2023-03-11T21:49:00.091Z,1.05
2023-03-11T21:51:29.160Z,1.07
2023-03-11T21:53:57.656Z,1.09
2023-03-11T21:56:26.116Z,1.09
2023-03-11T21:58:54.430Z,1.07
2023-03-11T22:01:23.290Z,1.06
2023-03-11T22:03:51.846Z,1.09
2023-03-11T22:06:20.180Z,1.13
2023-03-11T22:08:49.244Z,1.14
2023-03-11T22:11:19.507Z,1.12
2023-03-11T22:13:51.343Z,1.07
2023-03-11T22:16:21.445Z,1.03
2023-03-11T22:18:50.553Z,1.04
2023-03-11T22:21:20.923Z,1.05
2023-03-11T22:23:49.362Z,1.07
2023-03-11T22:26:17.589Z,1.05
2023-03-11T22:28:45.819Z,1.06
2023-03-11T22:31:15.515Z,1.10
2023-03-11T22:33:43.936Z,1.11
2023-03-11T22:36:12.300Z,1.12
2023-03-11T22:38:42.344Z,1.08
2023-03-11T22:41:11.146Z,1.04
2023-03-11T22:43:40.318Z,0.99
2023-03-11T22:46:08.593Z,0.91
2023-03-11T22:48:36.752Z,0.88
2023-03-11T22:51:05.619Z,0.86
2023-03-11T22:53:33.888Z,0.82
2023-03-11T22:56:07.709Z,0.81
2023-03-11T22:58:35.800Z,0.80
2023-03-11T23:01:05.156Z,0.80
2023-03-11T23:03:34.524Z,0.82
2023-03-11T23:06:06.030Z,0.84
2023-03-11T23:08:35.212Z,0.81
2023-03-11T23:11:06.574Z,0.81
2023-03-11T23:13:37.603Z,0.78
2023-03-11T23:16:28.217Z,0.77
2023-03-11T23:18:56.689Z,0.74
2023-03-11T23:21:29.471Z,0.72
2023-03-11T23:24:00.624Z,0.72
2023-03-11T23:26:30.164Z,0.71
2023-03-11T23:28:58.592Z,0.73
2023-03-11T23:31:27.837Z,0.67
2023-03-11T23:33:56.530Z,0.61
2023-03-11T23:36:27.678Z,0.62
2023-03-11T23:38:55.934Z,0.60
2023-03-11T23:41:24.267Z,0.59
2023-03-11T23:43:52.439Z,0.64
2023-03-11T23:46:20.707Z,0.64
2023-03-11T23:48:48.864Z,0.63
2023-03-11T23:51:16.990Z,0.61
2023-03-11T23:53:45.257Z,0.61
2023-03-11T23:56:17.210Z,0.61
2023-03-11T23:58:46.698Z,0.61
